createdAt,value
2019-05-22T10:37:46.415Z,4.83
2019-05-22T10:42:47.269Z,3.83
2019-05-22T10:47:48.814Z,4.00
2019-05-22T10:52:54.086Z,5.00
2019-05-22T10:57:53.608Z,4.17
2019-05-22T11:02:55.288Z,5.03
2019-05-22T11:07:56.372Z,5.43
2019-05-22T11:12:57.753Z,5.20
2019-05-22T11:17:58.952Z,5.47
2019-05-22T11:23:00.524Z,4.17
2019-05-22T11:28:01.536Z,5.33
2019-05-22T11:33:02.993Z,5.33
2019-05-22T11:38:04.172Z,5.60
2019-05-22T11:43:06.154Z,5.77
2019-05-22T11:48:07.651Z,6.30
2019-05-22T11:53:08.646Z,5.63
2019-05-22T11:58:09.926Z,5.60
2019-05-22T12:03:12.198Z,6.43
2019-05-22T12:08:16.695Z,6.13
2019-05-22T12:13:17.769Z,6.10
2019-05-22T12:18:19.468Z,5.57
2019-05-22T12:23:20.440Z,6.30
2019-05-22T12:28:21.424Z,5.63
2019-05-22T12:33:22.779Z,5.73
2019-05-22T12:38:26.758Z,6.27
2019-05-22T12:43:27.963Z,5.90
2019-05-22T12:48:29.240Z,6.20
2019-05-22T12:53:30.724Z,6.77
2019-05-22T12:58:33.020Z,6.83
2019-05-22T13:03:34.911Z,6.90
2019-05-22T13:08:36.569Z,6.67
2019-05-22T13:13:41.579Z,7.43
2019-05-22T13:18:43.857Z,7.40
2019-05-22T13:23:44.949Z,7.37
2019-05-22T13:28:46.722Z,7.43
2019-05-22T13:33:48.494Z,8.63
2019-05-22T13:38:49.516Z,8.37
2019-05-22T13:43:50.597Z,8.20
2019-05-22T13:48:54.233Z,6.80
2019-05-22T13:53:55.504Z,8.23
2019-05-22T13:58:56.602Z,8.07
2019-05-22T14:03:57.478Z,7.33
2019-05-22T14:08:59.716Z,8.17
2019-05-22T14:14:01.121Z,7.13
2019-05-22T14:19:02.787Z,8.10
2019-05-22T14:24:04.090Z,8.47
2019-05-22T14:29:05.344Z,7.97
2019-05-22T14:34:06.521Z,6.73
2019-05-22T14:39:09.702Z,7.30
2019-05-22T14:44:11.375Z,7.63
2019-05-22T14:49:27.026Z,7.47
2019-05-22T14:54:28.903Z,7.43
2019-05-22T14:59:31.190Z,7.50
2019-05-22T15:04:32.372Z,7.77
2019-05-22T15:09:34.527Z,7.30
2019-05-22T15:14:35.504Z,6.80
2019-05-22T15:19:36.782Z,7.30
2019-05-22T15:24:37.960Z,8.23
2019-05-22T15:29:39.258Z,8.90
2019-05-22T15:34:40.628Z,8.07
2019-05-22T15:39:42.800Z,7.67
2019-05-22T15:44:44.283Z,7.77
2019-05-22T15:49:45.552Z,5.70
2019-05-22T15:54:46.723Z,5.73
2019-05-22T15:59:47.625Z,5.83
2019-05-22T16:04:49.418Z,5.63
2019-05-22T16:09:50.595Z,7.40
2019-05-22T16:14:51.561Z,7.20
2019-05-22T16:19:52.941Z,6.47
2019-05-22T16:24:53.927Z,5.73
2019-05-22T16:29:54.815Z,5.93
2019-05-22T16:34:56.915Z,5.37
2019-05-22T16:39:58.464Z,6.67
2019-05-22T16:45:00.235Z,6.17
2019-05-22T16:50:01.431Z,8.20
2019-05-22T16:55:06.396Z,8.77
2019-05-22T17:00:09.791Z,7.57
2019-05-22T17:05:12.187Z,9.03
2019-05-22T17:10:14.369Z,8.37
2019-05-22T17:15:18.820Z,8.97
2019-05-22T17:20:22.905Z,10.43
2019-05-22T17:25:24.202Z,9.07
2019-05-22T17:30:25.885Z,8.57
2019-05-22T17:35:27.572Z,8.93
2019-05-22T17:40:30.036Z,8.33
2019-05-22T17:45:31.128Z,8.97
2019-05-22T17:50:32.990Z,9.00
2019-05-22T17:55:34.664Z,8.50
2019-05-22T18:00:40.223Z,9.83
2019-05-22T18:05:41.884Z,9.67
2019-05-22T18:10:47.790Z,9.60
2019-05-22T18:15:48.751Z,9.10
2019-05-22T18:20:50.620Z,9.13
2019-05-22T18:25:52.013Z,9.83
2019-05-22T18:30:53.506Z,8.97
2019-05-22T18:35:54.381Z,8.47
2019-05-22T18:40:55.259Z,7.77
2019-05-22T18:45:56.343Z,8.60
2019-05-22T18:50:57.232Z,8.43
2019-05-22T18:55:58.135Z,9.07
2019-05-22T19:00:59.099Z,7.97
2019-05-22T19:06:01.508Z,7.57
2019-05-22T19:11:02.796Z,8.27
2019-05-22T19:16:04.894Z,8.50
2019-05-22T19:21:07.090Z,7.50
2019-05-22T19:26:07.947Z,8.73
2019-05-22T19:31:09.431Z,8.70
2019-05-22T19:36:10.515Z,8.37
2019-05-22T19:41:11.792Z,8.67
2019-05-22T19:46:13.473Z,9.10
2019-05-22T19:51:16.751Z,8.47
2019-05-22T19:56:18.246Z,8.50
2019-05-22T20:01:19.330Z,8.53
2019-05-22T20:06:21.618Z,8.50
2019-05-22T20:11:22.696Z,8.53
2019-05-22T20:16:24.071Z,7.93
2019-05-22T20:21:26.360Z,8.17
2019-05-22T20:26:27.538Z,8.57
